Pisek, ND (58273)

7:29 AM CDT on October 01, 2016 (GMT -0500)
Forest River Farms | | Change Station

Elev 876 ft 48.17 °N, 97.47 °W | Updated 27 seconds ago

Clear
Clear
51.3 °F
Feels Like 51.3 °F
N
3.0
Wind Variable Wind from SE

Today
High -- | Low -- °F
--% Chance of Precip.
Yesterday
High -- | Low -- °F
Precip. -- in
Pressure 30.17 in
Visibility 10.0 miles
Clouds Clear
Dew Point 48 °F
Humidity 91%
Rainfall 0.00 in
Snow Depth Not available.
7:30 AM 7:08 PM
New Moon, 0% visible
METAR KGAF 011215Z AUTO 00000KT 10SM CLR 10/10 A3017 RMK AO2
Pressure 30.17 in
Visibility 10.0 miles
Clouds Clear
Dew Point 48 °F
Humidity 91%
Rainfall 0.00 in
Snow Depth Not available.
7:30 AM 7:08 PM
New Moon, 0% visible
METAR KGAF 011215Z AUTO 00000KT 10SM CLR 10/10 A3017 RMK AO2

10-Day Weather Forecast

Almanac

Astronomy

Oct. 01, 2016 Rise Set
Actual Time
Civil Twilight
Nautical Twilight
Astronomical Twilight
Moon
Length of Visible Light
Length of Day
Tomorrow will be .
, % of the Moon is Illuminated

Today's Extremes

State Highs State Lows

Community

WunderPhotos

Upload Photos

1,942,920 photos uploaded!

WunderBlog® & News

Nearby

Air Quality

  Air Quality AQ Index Pollutant
Not available.

Snow Depth

Station Depth Elevation

Earthquake Activity

City Distance Mag. Time & Date
Minimum magnitude displayed is 2.5.

Coastal Water Temperatures

Place Temperature

Stations

Nearby Weather Stations

Station Location Temp. Windchill Dew Point Humidity Wind Precip. Elev Updated Type
                   

Watches & Warnings

There are currently no watches in effect.